sensor_id;sensor_type;location;lat;lon;timestamp;temperature;humidity
42085;DHT22;27746;52.228;20.890;2023-08-06T00:01:00;19.20;99.90
42085;DHT22;27746;52.228;20.890;2023-08-06T00:03:27;19.20;99.90
42085;DHT22;27746;52.228;20.890;2023-08-06T00:05:54;19.20;99.90
42085;DHT22;27746;52.228;20.890;2023-08-06T00:08:21;19.30;99.90
42085;DHT22;27746;52.228;20.890;2023-08-06T00:10:48;19.30;99.90
42085;DHT22;27746;52.228;20.890;2023-08-06T00:13:15;19.20;99.90
42085;DHT22;27746;52.228;20.890;2023-08-06T00:15:43;19.20;99.90
42085;DHT22;27746;52.228;20.890;2023-08-06T00:18:10;19.20;99.90
42085;DHT22;27746;52.228;20.890;2023-08-06T00:20:39;19.20;99.90
42085;DHT22;27746;52.228;20.890;2023-08-06T00:23:06;19.20;99.90
42085;DHT22;27746;52.228;20.890;2023-08-06T00:25:33;19.20;99.90
42085;DHT22;27746;52.228;20.890;2023-08-06T00:28:00;19.10;99.90
42085;DHT22;27746;52.228;20.890;2023-08-06T00:30:27;19.10;99.90
42085;DHT22;27746;52.228;20.890;2023-08-06T00:32:55;19.10;99.90
42085;DHT22;27746;52.228;20.890;2023-08-06T00:35:22;19.10;99.90
42085;DHT22;27746;52.228;20.890;2023-08-06T00:37:49;19.10;99.90
42085;DHT22;27746;52.228;20.890;2023-08-06T00:40:16;19.10;99.90
42085;DHT22;27746;52.228;20.890;2023-08-06T00:42:42;19.10;99.90
42085;DHT22;27746;52.228;20.890;2023-08-06T00:45:10;19.00;99.90
42085;DHT22;27746;52.228;20.890;2023-08-06T00:47:37;19.10;99.90
42085;DHT22;27746;52.228;20.890;2023-08-06T00:50:08;19.00;99.90
42085;DHT22;27746;52.228;20.890;2023-08-06T00:52:36;19.00;99.90
42085;DHT22;27746;52.228;20.890;2023-08-06T00:55:03;19.00;99.90
42085;DHT22;27746;52.228;20.890;2023-08-06T00:57:30;19.00;99.90
42085;DHT22;27746;52.228;20.890;2023-08-06T00:59:58;19.00;99.90
42085;DHT22;27746;52.228;20.890;2023-08-06T01:02:25;19.00;99.90
42085;DHT22;27746;52.228;20.890;2023-08-06T01:04:51;19.00;99.90
42085;DHT22;27746;52.228;20.890;2023-08-06T01:07:29;19.00;99.90
42085;DHT22;27746;52.228;20.890;2023-08-06T01:10:14;19.00;99.90
42085;DHT22;27746;52.228;20.890;2023-08-06T01:12:50;19.00;99.90
42085;DHT22;27746;52.228;20.890;2023-08-06T01:15:21;19.00;99.90
42085;DHT22;27746;52.228;20.890;2023-08-06T01:17:48;19.00;99.90
42085;DHT22;27746;52.228;20.890;2023-08-06T01:20:16;19.00;99.90
42085;DHT22;27746;52.228;20.890;2023-08-06T01:22:44;18.90;99.90
42085;DHT22;27746;52.228;20.890;2023-08-06T01:25:12;18.90;99.90
42085;DHT22;27746;52.228;20.890;2023-08-06T01:27:45;18.90;99.90
42085;DHT22;27746;52.228;20.890;2023-08-06T01:30:16;18.90;99.90
42085;DHT22;27746;52.228;20.890;2023-08-06T01:32:46;18.80;99.90
42085;DHT22;27746;52.228;20.890;2023-08-06T01:35:15;18.80;99.90
42085;DHT22;27746;52.228;20.890;2023-08-06T01:37:44;18.80;99.90
42085;DHT22;27746;52.228;20.890;2023-08-06T01:40:12;18.80;99.90
42085;DHT22;27746;52.228;20.890;2023-08-06T01:42:40;18.70;99.90
42085;DHT22;27746;52.228;20.890;2023-08-06T01:45:08;18.70;99.90
42085;DHT22;27746;52.228;20.890;2023-08-06T01:47:35;18.70;99.90
42085;DHT22;27746;52.228;20.890;2023-08-06T01:50:02;18.70;99.90
42085;DHT22;27746;52.228;20.890;2023-08-06T01:52:29;18.70;99.90
42085;DHT22;27746;52.228;20.890;2023-08-06T01:54:58;18.70;99.90
42085;DHT22;27746;52.228;20.890;2023-08-06T01:57:25;18.60;99.90
42085;DHT22;27746;52.228;20.890;2023-08-06T01:59:51;18.70;99.90
42085;DHT22;27746;52.228;20.890;2023-08-06T02:02:18;18.70;99.90
42085;DHT22;27746;52.228;20.890;2023-08-06T02:04:45;18.70;99.90
42085;DHT22;27746;52.228;20.890;2023-08-06T02:07:12;18.70;99.90
42085;DHT22;27746;52.228;20.890;2023-08-06T02:09:39;18.70;99.90
42085;DHT22;27746;52.228;20.890;2023-08-06T02:12:08;18.70;99.90
42085;DHT22;27746;52.228;20.890;2023-08-06T02:14:34;18.70;99.90
42085;DHT22;27746;52.228;20.890;2023-08-06T02:17:01;18.70;99.90
42085;DHT22;27746;52.228;20.890;2023-08-06T02:19:28;18.70;99.90
42085;DHT22;27746;52.228;20.890;2023-08-06T02:21:55;18.70;99.90
42085;DHT22;27746;52.228;20.890;2023-08-06T02:24:22;18.70;99.90
42085;DHT22;27746;52.228;20.890;2023-08-06T02:26:49;18.70;99.90
42085;DHT22;27746;52.228;20.890;2023-08-06T02:29:18;18.70;99.90
42085;DHT22;27746;52.228;20.890;2023-08-06T02:31:45;18.80;99.90
42085;DHT22;27746;52.228;20.890;2023-08-06T02:34:11;18.80;99.90
42085;DHT22;27746;52.228;20.890;2023-08-06T02:36:38;18.80;99.90
42085;DHT22;27746;52.228;20.890;2023-08-06T02:39:05;18.80;99.90
42085;DHT22;27746;52.228;20.890;2023-08-06T02:41:32;18.80;99.90
42085;DHT22;27746;52.228;20.890;2023-08-06T02:43:59;18.90;99.90
42085;DHT22;27746;52.228;20.890;2023-08-06T02:46:27;18.90;99.90
42085;DHT22;27746;52.228;20.890;2023-08-06T02:48:54;18.90;99.90
42085;DHT22;27746;52.228;20.890;2023-08-06T02:51:21;18.90;99.90
42085;DHT22;27746;52.228;20.890;2023-08-06T02:53:48;18.90;99.90
42085;DHT22;27746;52.228;20.890;2023-08-06T02:56:15;18.90;99.90
42085;DHT22;27746;52.228;20.890;2023-08-06T02:58:42;18.90;99.90
42085;DHT22;27746;52.228;20.890;2023-08-06T03:01:09;18.90;99.90
42085;DHT22;27746;52.228;20.890;2023-08-06T03:03:37;18.90;99.90
42085;DHT22;27746;52.228;20.890;2023-08-06T03:06:04;18.90;99.90
42085;DHT22;27746;52.228;20.890;2023-08-06T03:08:31;18.90;99.90
42085;DHT22;27746;52.228;20.890;2023-08-06T03:10:58;18.90;99.90
42085;DHT22;27746;52.228;20.890;2023-08-06T03:13:25;18.90;99.90
42085;DHT22;27746;52.228;20.890;2023-08-06T03:15:54;18.90;99.90
42085;DHT22;27746;52.228;20.890;2023-08-06T03:18:22;19.00;99.90
42085;DHT22;27746;52.228;20.890;2023-08-06T03:20:50;19.00;99.90
42085;DHT22;27746;52.228;20.890;2023-08-06T03:23:17;19.00;99.90
42085;DHT22;27746;52.228;20.890;2023-08-06T03:25:46;19.00;99.90
42085;DHT22;27746;52.228;20.890;2023-08-06T03:28:13;19.00;99.90
42085;DHT22;27746;52.228;20.890;2023-08-06T03:30:40;19.00;99.90
42085;DHT22;27746;52.228;20.890;2023-08-06T03:33:07;19.00;99.90
42085;DHT22;27746;52.228;20.890;2023-08-06T03:35:35;19.00;99.90
42085;DHT22;27746;52.228;20.890;2023-08-06T03:38:03;19.00;99.90
42085;DHT22;27746;52.228;20.890;2023-08-06T03:40:30;19.00;99.90
42085;DHT22;27746;52.228;20.890;2023-08-06T03:42:57;19.00;99.90
42085;DHT22;27746;52.228;20.890;2023-08-06T03:45:24;19.00;99.90
42085;DHT22;27746;52.228;20.890;2023-08-06T03:47:51;19.00;99.90
42085;DHT22;27746;52.228;20.890;2023-08-06T03:50:17;19.00;99.90
42085;DHT22;27746;52.228;20.890;2023-08-06T03:52:44;19.00;99.90
42085;DHT22;27746;52.228;20.890;2023-08-06T03:55:12;19.00;99.90
42085;DHT22;27746;52.228;20.890;2023-08-06T03:57:39;19.00;99.90
42085;DHT22;27746;52.228;20.890;2023-08-06T04:00:07;19.00;99.90
42085;DHT22;27746;52.228;20.890;2023-08-06T04:02:34;19.10;99.90
42085;DHT22;27746;52.228;20.890;2023-08-06T04:05:01;19.10;99.90
42085;DHT22;27746;52.228;20.890;2023-08-06T04:07:28;19.10;99.90
42085;DHT22;27746;52.228;20.890;2023-08-06T04:09:57;19.10;99.90
42085;DHT22;27746;52.228;20.890;2023-08-06T04:12:25;19.10;99.90
42085;DHT22;27746;52.228;20.890;2023-08-06T04:14:53;19.10;99.90
42085;DHT22;27746;52.228;20.890;2023-08-06T04:17:20;19.10;99.90
42085;DHT22;27746;52.228;20.890;2023-08-06T04:19:48;19.20;99.90
42085;DHT22;27746;52.228;20.890;2023-08-06T04:22:15;19.20;99.90
42085;DHT22;27746;52.228;20.890;2023-08-06T04:24:42;19.20;99.90
42085;DHT22;27746;52.228;20.890;2023-08-06T04:27:09;19.20;99.90
42085;DHT22;27746;52.228;20.890;2023-08-06T04:29:37;19.20;99.90
42085;DHT22;27746;52.228;20.890;2023-08-06T04:32:06;19.20;99.90
42085;DHT22;27746;52.228;20.890;2023-08-06T04:34:33;19.20;99.90
42085;DHT22;27746;52.228;20.890;2023-08-06T04:37:01;19.20;99.90
42085;DHT22;27746;52.228;20.890;2023-08-06T04:39:28;19.30;99.90
42085;DHT22;27746;52.228;20.890;2023-08-06T04:41:55;19.30;99.90
42085;DHT22;27746;52.228;20.890;2023-08-06T04:44:22;19.30;99.90
42085;DHT22;27746;52.228;20.890;2023-08-06T04:46:50;19.30;99.90
42085;DHT22;27746;52.228;20.890;2023-08-06T04:49:17;19.40;99.90
42085;DHT22;27746;52.228;20.890;2023-08-06T04:51:44;19.40;99.90
42085;DHT22;27746;52.228;20.890;2023-08-06T04:54:11;19.40;99.90
42085;DHT22;27746;52.228;20.890;2023-08-06T04:56:38;19.40;99.90
42085;DHT22;27746;52.228;20.890;2023-08-06T04:59:04;19.50;99.90
42085;DHT22;27746;52.228;20.890;2023-08-06T05:01:31;19.60;99.90
42085;DHT22;27746;52.228;20.890;2023-08-06T05:04:00;19.60;99.90
42085;DHT22;27746;52.228;20.890;2023-08-06T05:06:26;19.60;99.90
42085;DHT22;27746;52.228;20.890;2023-08-06T05:08:53;19.70;99.90
42085;DHT22;27746;52.228;20.890;2023-08-06T05:11:20;19.70;99.90
42085;DHT22;27746;52.228;20.890;2023-08-06T05:13:47;19.80;99.90
42085;DHT22;27746;52.228;20.890;2023-08-06T05:16:14;19.80;99.90
42085;DHT22;27746;52.228;20.890;2023-08-06T05:18:40;19.90;99.90
42085;DHT22;27746;52.228;20.890;2023-08-06T05:21:09;19.90;99.90
42085;DHT22;27746;52.228;20.890;2023-08-06T05:23:36;20.00;99.90
42085;DHT22;27746;52.228;20.890;2023-08-06T05:26:02;20.00;99.90
42085;DHT22;27746;52.228;20.890;2023-08-06T05:28:29;20.10;99.90
42085;DHT22;27746;52.228;20.890;2023-08-06T05:30:56;20.20;99.90
42085;DHT22;27746;52.228;20.890;2023-08-06T05:33:23;20.20;99.90
42085;DHT22;27746;52.228;20.890;2023-08-06T05:35:50;20.30;99.90
42085;DHT22;27746;52.228;20.890;2023-08-06T05:38:18;20.40;99.90
42085;DHT22;27746;52.228;20.890;2023-08-06T05:40:45;20.50;99.90
42085;DHT22;27746;52.228;20.890;2023-08-06T05:43:13;20.60;99.90
42085;DHT22;27746;52.228;20.890;2023-08-06T05:45:43;20.70;99.90
42085;DHT22;27746;52.228;20.890;2023-08-06T05:48:10;20.80;99.90
42085;DHT22;27746;52.228;20.890;2023-08-06T05:50:37;20.90;99.90
42085;DHT22;27746;52.228;20.890;2023-08-06T05:53:04;21.00;99.90
42085;DHT22;27746;52.228;20.890;2023-08-06T05:55:33;21.10;99.90
42085;DHT22;27746;52.228;20.890;2023-08-06T05:58:00;21.20;99.90
42085;DHT22;27746;52.228;20.890;2023-08-06T06:00:26;21.20;99.90
42085;DHT22;27746;52.228;20.890;2023-08-06T06:02:53;21.30;99.90
42085;DHT22;27746;52.228;20.890;2023-08-06T06:05:21;21.40;99.90
42085;DHT22;27746;52.228;20.890;2023-08-06T06:07:48;21.50;99.90
42085;DHT22;27746;52.228;20.890;2023-08-06T06:10:15;21.60;99.90
42085;DHT22;27746;52.228;20.890;2023-08-06T06:12:43;21.70;99.90
42085;DHT22;27746;52.228;20.890;2023-08-06T06:15:10;21.80;99.90
42085;DHT22;27746;52.228;20.890;2023-08-06T06:17:37;21.90;99.90
42085;DHT22;27746;52.228;20.890;2023-08-06T06:20:05;22.00;99.90
42085;DHT22;27746;52.228;20.890;2023-08-06T06:22:32;22.10;99.90
42085;DHT22;27746;52.228;20.890;2023-08-06T06:24:59;22.10;99.90
42085;DHT22;27746;52.228;20.890;2023-08-06T06:27:26;22.20;99.90
42085;DHT22;27746;52.228;20.890;2023-08-06T06:29:54;22.20;99.90
42085;DHT22;27746;52.228;20.890;2023-08-06T06:32:21;22.30;99.90
42085;DHT22;27746;52.228;20.890;2023-08-06T06:34:48;22.30;99.90
42085;DHT22;27746;52.228;20.890;2023-08-06T06:37:15;22.30;99.90
42085;DHT22;27746;52.228;20.890;2023-08-06T06:39:42;22.40;99.90
42085;DHT22;27746;52.228;20.890;2023-08-06T06:42:09;22.40;99.90
42085;DHT22;27746;52.228;20.890;2023-08-06T06:44:36;22.40;99.90
42085;DHT22;27746;52.228;20.890;2023-08-06T06:47:05;22.50;99.90
42085;DHT22;27746;52.228;20.890;2023-08-06T06:49:31;22.50;99.90
42085;DHT22;27746;52.228;20.890;2023-08-06T06:51:58;22.60;99.90
42085;DHT22;27746;52.228;20.890;2023-08-06T06:54:25;22.60;99.90
42085;DHT22;27746;52.228;20.890;2023-08-06T06:56:52;22.70;99.90
42085;DHT22;27746;52.228;20.890;2023-08-06T06:59:19;22.70;99.90
42085;DHT22;27746;52.228;20.890;2023-08-06T07:01:45;22.80;99.90
42085;DHT22;27746;52.228;20.890;2023-08-06T07:04:14;22.90;99.90
42085;DHT22;27746;52.228;20.890;2023-08-06T07:06:40;23.00;99.90
42085;DHT22;27746;52.228;20.890;2023-08-06T07:09:07;23.10;99.90
42085;DHT22;27746;52.228;20.890;2023-08-06T07:11:34;23.20;99.90
42085;DHT22;27746;52.228;20.890;2023-08-06T07:14:01;23.30;99.90
42085;DHT22;27746;52.228;20.890;2023-08-06T07:16:28;23.40;99.90
42085;DHT22;27746;52.228;20.890;2023-08-06T07:18:55;23.60;99.90
42085;DHT22;27746;52.228;20.890;2023-08-06T07:21:23;23.70;99.90
42085;DHT22;27746;52.228;20.890;2023-08-06T07:23:50;23.90;99.90
42085;DHT22;27746;52.228;20.890;2023-08-06T07:26:16;23.90;99.90
42085;DHT22;27746;52.228;20.890;2023-08-06T07:28:43;24.10;99.90
42085;DHT22;27746;52.228;20.890;2023-08-06T07:31:11;24.10;99.90
42085;DHT22;27746;52.228;20.890;2023-08-06T07:33:38;24.10;99.90
42085;DHT22;27746;52.228;20.890;2023-08-06T07:36:08;24.10;99.90
42085;DHT22;27746;52.228;20.890;2023-08-06T07:38:37;24.10;99.90
42085;DHT22;27746;52.228;20.890;2023-08-06T07:41:04;24.20;99.90
42085;DHT22;27746;52.228;20.890;2023-08-06T07:43:31;24.30;99.90
42085;DHT22;27746;52.228;20.890;2023-08-06T07:45:58;24.30;99.90
42085;DHT22;27746;52.228;20.890;2023-08-06T07:48:26;24.40;99.90
42085;DHT22;27746;52.228;20.890;2023-08-06T07:50:53;24.50;99.90
42085;DHT22;27746;52.228;20.890;2023-08-06T07:53:20;24.50;99.90
42085;DHT22;27746;52.228;20.890;2023-08-06T07:55:51;24.50;99.90
42085;DHT22;27746;52.228;20.890;2023-08-06T07:58:18;24.60;99.90
42085;DHT22;27746;52.228;20.890;2023-08-06T08:00:45;24.70;99.90
42085;DHT22;27746;52.228;20.890;2023-08-06T08:03:12;24.80;99.90
42085;DHT22;27746;52.228;20.890;2023-08-06T08:05:39;24.90;99.90
42085;DHT22;27746;52.228;20.890;2023-08-06T08:08:06;25.00;99.90
42085;DHT22;27746;52.228;20.890;2023-08-06T08:10:34;25.10;99.90
42085;DHT22;27746;52.228;20.890;2023-08-06T08:13:03;25.20;99.90
42085;DHT22;27746;52.228;20.890;2023-08-06T08:15:31;25.20;99.90
42085;DHT22;27746;52.228;20.890;2023-08-06T08:17:57;25.30;99.90
42085;DHT22;27746;52.228;20.890;2023-08-06T08:20:25;25.40;99.90
42085;DHT22;27746;52.228;20.890;2023-08-06T08:22:57;25.50;99.90
42085;DHT22;27746;52.228;20.890;2023-08-06T08:25:24;25.70;99.90
42085;DHT22;27746;52.228;20.890;2023-08-06T08:27:51;25.90;99.90
42085;DHT22;27746;52.228;20.890;2023-08-06T08:30:19;26.10;99.90
42085;DHT22;27746;52.228;20.890;2023-08-06T08:32:46;26.20;99.90
42085;DHT22;27746;52.228;20.890;2023-08-06T08:35:13;26.30;99.90
42085;DHT22;27746;52.228;20.890;2023-08-06T08:37:41;26.40;99.90
42085;DHT22;27746;52.228;20.890;2023-08-06T08:40:09;26.60;99.90
42085;DHT22;27746;52.228;20.890;2023-08-06T08:42:36;26.70;99.90
42085;DHT22;27746;52.228;20.890;2023-08-06T08:45:04;26.90;99.90
42085;DHT22;27746;52.228;20.890;2023-08-06T08:47:36;27.10;99.90
42085;DHT22;27746;52.228;20.890;2023-08-06T08:50:06;27.20;99.90
42085;DHT22;27746;52.228;20.890;2023-08-06T08:52:33;27.30;99.90
42085;DHT22;27746;52.228;20.890;2023-08-06T08:55:01;27.20;99.90
42085;DHT22;27746;52.228;20.890;2023-08-06T08:57:28;27.30;99.70
42085;DHT22;27746;52.228;20.890;2023-08-06T08:59:55;27.20;99.20
42085;DHT22;27746;52.228;20.890;2023-08-06T09:02:23;27.20;99.10
42085;DHT22;27746;52.228;20.890;2023-08-06T09:04:54;27.20;99.30
42085;DHT22;27746;52.228;20.890;2023-08-06T09:07:22;27.20;99.40
42085;DHT22;27746;52.228;20.890;2023-08-06T09:09:50;27.30;98.90
42085;DHT22;27746;52.228;20.890;2023-08-06T09:12:18;27.30;98.80
42085;DHT22;27746;52.228;20.890;2023-08-06T09:14:45;27.40;98.80
42085;DHT22;27746;52.228;20.890;2023-08-06T09:17:12;27.40;98.20
42085;DHT22;27746;52.228;20.890;2023-08-06T09:19:42;27.50;98.40
42085;DHT22;27746;52.228;20.890;2023-08-06T09:22:14;27.70;97.90
42085;DHT22;27746;52.228;20.890;2023-08-06T09:24:41;27.80;98.20
42085;DHT22;27746;52.228;20.890;2023-08-06T09:27:11;27.90;98.00
42085;DHT22;27746;52.228;20.890;2023-08-06T09:29:40;27.90;97.30
42085;DHT22;27746;52.228;20.890;2023-08-06T09:32:08;27.90;97.00
42085;DHT22;27746;52.228;20.890;2023-08-06T09:34:35;28.00;96.90
42085;DHT22;27746;52.228;20.890;2023-08-06T09:37:05;28.10;97.00
42085;DHT22;27746;52.228;20.890;2023-08-06T09:39:33;28.10;96.50
42085;DHT22;27746;52.228;20.890;2023-08-06T09:42:00;28.10;96.50
42085;DHT22;27746;52.228;20.890;2023-08-06T09:44:31;28.00;96.10
42085;DHT22;27746;52.228;20.890;2023-08-06T09:47:00;28.10;96.00
42085;DHT22;27746;52.228;20.890;2023-08-06T09:49:28;28.10;95.70
42085;DHT22;27746;52.228;20.890;2023-08-06T09:51:55;28.20;95.70
42085;DHT22;27746;52.228;20.890;2023-08-06T09:54:24;28.30;95.90
42085;DHT22;27746;52.228;20.890;2023-08-06T09:56:53;28.40;95.70
42085;DHT22;27746;52.228;20.890;2023-08-06T09:59:21;28.50;95.50
42085;DHT22;27746;52.228;20.890;2023-08-06T10:01:48;28.60;95.00
42085;DHT22;27746;52.228;20.890;2023-08-06T10:04:15;28.70;94.60
42085;DHT22;27746;52.228;20.890;2023-08-06T10:06:46;28.80;94.20
42085;DHT22;27746;52.228;20.890;2023-08-06T10:09:14;28.90;93.70
42085;DHT22;27746;52.228;20.890;2023-08-06T10:11:42;29.10;93.80
42085;DHT22;27746;52.228;20.890;2023-08-06T10:14:13;29.10;93.70
42085;DHT22;27746;52.228;20.890;2023-08-06T10:16:42;29.20;93.50
42085;DHT22;27746;52.228;20.890;2023-08-06T10:19:10;29.20;93.30
42085;DHT22;27746;52.228;20.890;2023-08-06T10:21:38;29.10;92.70
42085;DHT22;27746;52.228;20.890;2023-08-06T10:24:07;29.10;92.80
42085;DHT22;27746;52.228;20.890;2023-08-06T10:26:36;29.10;93.10
42085;DHT22;27746;52.228;20.890;2023-08-06T10:29:38;29.10;92.70
42085;DHT22;27746;52.228;20.890;2023-08-06T10:32:05;29.00;92.60
42085;DHT22;27746;52.228;20.890;2023-08-06T10:34:55;28.90;92.50
42085;DHT22;27746;52.228;20.890;2023-08-06T10:37:23;28.80;92.90
42085;DHT22;27746;52.228;20.890;2023-08-06T10:39:50;28.90;92.20
42085;DHT22;27746;52.228;20.890;2023-08-06T10:42:27;28.90;92.50
42085;DHT22;27746;52.228;20.890;2023-08-06T10:45:18;28.90;92.40
42085;DHT22;27746;52.228;20.890;2023-08-06T10:47:46;28.90;92.30
42085;DHT22;27746;52.228;20.890;2023-08-06T10:50:14;29.00;91.60
42085;DHT22;27746;52.228;20.890;2023-08-06T10:52:43;28.90;91.70
42085;DHT22;27746;52.228;20.890;2023-08-06T10:55:10;28.90;91.80
42085;DHT22;27746;52.228;20.890;2023-08-06T10:57:37;28.80;91.70
42085;DHT22;27746;52.228;20.890;2023-08-06T11:00:05;28.60;91.60
42085;DHT22;27746;52.228;20.890;2023-08-06T11:02:35;28.40;91.70
42085;DHT22;27746;52.228;20.890;2023-08-06T11:05:06;28.40;91.90
42085;DHT22;27746;52.228;20.890;2023-08-06T11:07:33;28.40;92.00
42085;DHT22;27746;52.228;20.890;2023-08-06T11:10:04;28.30;91.90
42085;DHT22;27746;52.228;20.890;2023-08-06T11:12:32;28.40;92.10
42085;DHT22;27746;52.228;20.890;2023-08-06T11:14:59;28.40;92.10
42085;DHT22;27746;52.228;20.890;2023-08-06T11:17:27;28.40;92.20
42085;DHT22;27746;52.228;20.890;2023-08-06T11:19:58;28.40;92.30
42085;DHT22;27746;52.228;20.890;2023-08-06T11:22:26;28.40;92.00
42085;DHT22;27746;52.228;20.890;2023-08-06T11:24:53;28.60;91.90
42085;DHT22;27746;52.228;20.890;2023-08-06T11:27:20;28.80;91.40
42085;DHT22;27746;52.228;20.890;2023-08-06T11:29:47;29.00;91.40
42085;DHT22;27746;52.228;20.890;2023-08-06T11:32:14;29.20;90.80
42085;DHT22;27746;52.228;20.890;2023-08-06T11:34:41;29.30;90.70
42085;DHT22;27746;52.228;20.890;2023-08-06T11:37:11;29.30;90.60
42085;DHT22;27746;52.228;20.890;2023-08-06T11:39:38;29.40;90.50
42085;DHT22;27746;52.228;20.890;2023-08-06T11:42:06;29.50;90.20
42085;DHT22;27746;52.228;20.890;2023-08-06T11:44:35;29.60;90.40
42085;DHT22;27746;52.228;20.890;2023-08-06T11:47:05;29.70;89.30
42085;DHT22;27746;52.228;20.890;2023-08-06T11:49:39;29.80;88.80
42085;DHT22;27746;52.228;20.890;2023-08-06T11:52:14;29.90;87.20
42085;DHT22;27746;52.228;20.890;2023-08-06T11:54:41;30.00;87.90
42085;DHT22;27746;52.228;20.890;2023-08-06T11:57:09;30.10;87.10
42085;DHT22;27746;52.228;20.890;2023-08-06T11:59:37;30.30;86.60
42085;DHT22;27746;52.228;20.890;2023-08-06T12:02:05;30.40;85.70
42085;DHT22;27746;52.228;20.890;2023-08-06T12:04:58;30.60;85.80
42085;DHT22;27746;52.228;20.890;2023-08-06T12:07:28;30.90;85.30
42085;DHT22;27746;52.228;20.890;2023-08-06T12:09:55;31.00;84.80
42085;DHT22;27746;52.228;20.890;2023-08-06T12:12:23;31.20;83.70
42085;DHT22;27746;52.228;20.890;2023-08-06T12:14:50;31.20;81.90
42085;DHT22;27746;52.228;20.890;2023-08-06T12:17:16;31.10;81.10
42085;DHT22;27746;52.228;20.890;2023-08-06T12:19:45;30.80;79.80
42085;DHT22;27746;52.228;20.890;2023-08-06T12:22:12;30.60;80.20
42085;DHT22;27746;52.228;20.890;2023-08-06T12:24:41;30.40;80.90
42085;DHT22;27746;52.228;20.890;2023-08-06T12:27:08;30.10;81.00
42085;DHT22;27746;52.228;20.890;2023-08-06T12:29:35;29.90;80.20
42085;DHT22;27746;52.228;20.890;2023-08-06T12:32:02;29.60;80.90
42085;DHT22;27746;52.228;20.890;2023-08-06T12:34:29;29.50;81.80
42085;DHT22;27746;52.228;20.890;2023-08-06T12:36:56;29.30;82.40
42085;DHT22;27746;52.228;20.890;2023-08-06T12:39:23;29.20;83.00
42085;DHT22;27746;52.228;20.890;2023-08-06T12:41:51;29.00;83.50
42085;DHT22;27746;52.228;20.890;2023-08-06T12:44:18;28.90;84.00
42085;DHT22;27746;52.228;20.890;2023-08-06T12:46:45;28.80;84.90
42085;DHT22;27746;52.228;20.890;2023-08-06T12:49:12;28.70;84.60
42085;DHT22;27746;52.228;20.890;2023-08-06T12:51:39;28.60;84.60
42085;DHT22;27746;52.228;20.890;2023-08-06T12:54:06;28.60;84.90
42085;DHT22;27746;52.228;20.890;2023-08-06T12:56:33;28.70;84.90
42085;DHT22;27746;52.228;20.890;2023-08-06T12:59:02;28.80;85.20
42085;DHT22;27746;52.228;20.890;2023-08-06T13:01:28;28.80;84.90
42085;DHT22;27746;52.228;20.890;2023-08-06T13:03:55;28.80;84.50
42085;DHT22;27746;52.228;20.890;2023-08-06T13:06:22;28.80;84.70
42085;DHT22;27746;52.228;20.890;2023-08-06T13:08:49;28.70;84.70
42085;DHT22;27746;52.228;20.890;2023-08-06T13:11:16;28.80;85.10
42085;DHT22;27746;52.228;20.890;2023-08-06T13:13:44;28.70;85.20
42085;DHT22;27746;52.228;20.890;2023-08-06T13:16:12;28.80;85.20
42085;DHT22;27746;52.228;20.890;2023-08-06T13:18:39;28.80;85.30
42085;DHT22;27746;52.228;20.890;2023-08-06T13:21:06;28.80;85.40
42085;DHT22;27746;52.228;20.890;2023-08-06T13:23:33;28.70;85.30
42085;DHT22;27746;52.228;20.890;2023-08-06T13:26:00;28.80;85.40
42085;DHT22;27746;52.228;20.890;2023-08-06T13:28:27;28.90;86.10
42085;DHT22;27746;52.228;20.890;2023-08-06T13:30:54;29.00;86.90
42085;DHT22;27746;52.228;20.890;2023-08-06T13:33:22;29.20;86.90
42085;DHT22;27746;52.228;20.890;2023-08-06T13:35:48;29.20;86.30
42085;DHT22;27746;52.228;20.890;2023-08-06T13:38:16;29.30;86.50
42085;DHT22;27746;52.228;20.890;2023-08-06T13:40:43;29.30;85.70
42085;DHT22;27746;52.228;20.890;2023-08-06T13:43:11;29.30;85.90
42085;DHT22;27746;52.228;20.890;2023-08-06T13:45:38;29.30;86.20
42085;DHT22;27746;52.228;20.890;2023-08-06T13:48:05;29.20;86.50
42085;DHT22;27746;52.228;20.890;2023-08-06T13:50:33;29.10;87.20
42085;DHT22;27746;52.228;20.890;2023-08-06T13:53:00;29.00;87.20
42085;DHT22;27746;52.228;20.890;2023-08-06T13:55:27;28.90;87.40
42085;DHT22;27746;52.228;20.890;2023-08-06T13:57:55;28.80;88.60
42085;DHT22;27746;52.228;20.890;2023-08-06T14:00:23;28.70;88.30
42085;DHT22;27746;52.228;20.890;2023-08-06T14:02:50;28.60;88.70
42085;DHT22;27746;52.228;20.890;2023-08-06T14:05:16;28.50;89.20
42085;DHT22;27746;52.228;20.890;2023-08-06T14:07:45;28.50;89.90
42085;DHT22;27746;52.228;20.890;2023-08-06T14:10:11;28.40;89.60
42085;DHT22;27746;52.228;20.890;2023-08-06T14:12:38;28.40;89.30
42085;DHT22;27746;52.228;20.890;2023-08-06T14:15:06;28.50;89.20
42085;DHT22;27746;52.228;20.890;2023-08-06T14:17:34;28.50;89.10
42085;DHT22;27746;52.228;20.890;2023-08-06T14:20:01;28.70;89.20
42085;DHT22;27746;52.228;20.890;2023-08-06T14:22:29;28.70;88.00
42085;DHT22;27746;52.228;20.890;2023-08-06T14:24:58;28.60;88.30
42085;DHT22;27746;52.228;20.890;2023-08-06T14:27:25;28.50;88.20
42085;DHT22;27746;52.228;20.890;2023-08-06T14:29:52;28.30;88.40
42085;DHT22;27746;52.228;20.890;2023-08-06T14:32:19;28.10;88.60
42085;DHT22;27746;52.228;20.890;2023-08-06T14:34:46;28.00;89.20
42085;DHT22;27746;52.228;20.890;2023-08-06T14:37:13;27.90;88.90
42085;DHT22;27746;52.228;20.890;2023-08-06T14:39:40;27.80;89.40
42085;DHT22;27746;52.228;20.890;2023-08-06T14:42:08;27.70;89.40
42085;DHT22;27746;52.228;20.890;2023-08-06T14:44:35;27.70;89.90
42085;DHT22;27746;52.228;20.890;2023-08-06T14:47:03;27.80;90.30
42085;DHT22;27746;52.228;20.890;2023-08-06T14:49:29;27.80;91.00
42085;DHT22;27746;52.228;20.890;2023-08-06T14:51:56;27.70;91.10
42085;DHT22;27746;52.228;20.890;2023-08-06T14:54:25;27.50;91.40
42085;DHT22;27746;52.228;20.890;2023-08-06T14:56:53;27.40;91.80
42085;DHT22;27746;52.228;20.890;2023-08-06T14:59:22;27.40;91.90
42085;DHT22;27746;52.228;20.890;2023-08-06T15:01:49;27.40;91.90
42085;DHT22;27746;52.228;20.890;2023-08-06T15:04:16;27.40;91.70
42085;DHT22;27746;52.228;20.890;2023-08-06T15:06:44;27.30;91.60
42085;DHT22;27746;52.228;20.890;2023-08-06T15:09:11;27.30;91.80
42085;DHT22;27746;52.228;20.890;2023-08-06T15:11:38;27.20;91.70
42085;DHT22;27746;52.228;20.890;2023-08-06T15:14:05;27.10;91.30
42085;DHT22;27746;52.228;20.890;2023-08-06T15:16:34;26.90;90.90
42085;DHT22;27746;52.228;20.890;2023-08-06T15:19:01;26.80;91.10